sensor_id;sensor_type;location;lat;lon;timestamp;temperature;humidity
21115;DHT22;10715;48.546;9.896;2023-09-19T00:00:45;14.40;99.90
21115;DHT22;10715;48.546;9.896;2023-09-19T00:03:12;14.40;99.90
21115;DHT22;10715;48.546;9.896;2023-09-19T00:05:39;14.40;99.90
21115;DHT22;10715;48.546;9.896;2023-09-19T00:08:05;14.40;99.90
21115;DHT22;10715;48.546;9.896;2023-09-19T00:10:32;14.40;99.90
21115;DHT22;10715;48.546;9.896;2023-09-19T00:13:03;14.40;99.90
21115;DHT22;10715;48.546;9.896;2023-09-19T00:15:39;14.40;99.90
21115;DHT22;10715;48.546;9.896;2023-09-19T00:18:06;14.30;99.90
21115;DHT22;10715;48.546;9.896;2023-09-19T00:20:32;14.30;99.90
21115;DHT22;10715;48.546;9.896;2023-09-19T00:23:00;14.30;99.90
21115;DHT22;10715;48.546;9.896;2023-09-19T00:25:28;14.30;99.90
21115;DHT22;10715;48.546;9.896;2023-09-19T00:27:54;14.30;99.90
21115;DHT22;10715;48.546;9.896;2023-09-19T00:30:21;14.30;99.90
21115;DHT22;10715;48.546;9.896;2023-09-19T00:32:50;14.30;99.90
21115;DHT22;10715;48.546;9.896;2023-09-19T00:35:23;14.30;99.90
21115;DHT22;10715;48.546;9.896;2023-09-19T00:37:53;14.30;99.90
21115;DHT22;10715;48.546;9.896;2023-09-19T00:40:19;14.30;99.90
21115;DHT22;10715;48.546;9.896;2023-09-19T00:42:47;14.30;99.90
21115;DHT22;10715;48.546;9.896;2023-09-19T00:45:16;14.20;99.90
21115;DHT22;10715;48.546;9.896;2023-09-19T00:47:51;14.30;99.90
21115;DHT22;10715;48.546;9.896;2023-09-19T00:50:18;14.20;99.90
21115;DHT22;10715;48.546;9.896;2023-09-19T00:52:46;14.20;99.90
21115;DHT22;10715;48.546;9.896;2023-09-19T00:55:14;14.20;99.90
21115;DHT22;10715;48.546;9.896;2023-09-19T00:57:42;14.20;99.90
21115;DHT22;10715;48.546;9.896;2023-09-19T01:00:10;14.20;99.90
21115;DHT22;10715;48.546;9.896;2023-09-19T01:02:38;14.20;99.90
21115;DHT22;10715;48.546;9.896;2023-09-19T01:05:04;14.20;99.90
21115;DHT22;10715;48.546;9.896;2023-09-19T01:07:32;14.10;99.90
21115;DHT22;10715;48.546;9.896;2023-09-19T01:10:04;14.10;99.90
21115;DHT22;10715;48.546;9.896;2023-09-19T01:29:23;14.00;99.90
21115;DHT22;10715;48.546;9.896;2023-09-19T01:32:06;14.00;99.90
21115;DHT22;10715;48.546;9.896;2023-09-19T01:37:20;14.00;99.90
21115;DHT22;10715;48.546;9.896;2023-09-19T01:40:06;14.00;99.90
21115;DHT22;10715;48.546;9.896;2023-09-19T01:45:56;14.00;99.90
21115;DHT22;10715;48.546;9.896;2023-09-19T01:51:06;14.00;99.90
21115;DHT22;10715;48.546;9.896;2023-09-19T01:53:55;14.00;99.90
21115;DHT22;10715;48.546;9.896;2023-09-19T01:56:34;14.00;99.90
21115;DHT22;10715;48.546;9.896;2023-09-19T01:59:13;14.00;99.90
21115;DHT22;10715;48.546;9.896;2023-09-19T02:01:42;14.00;99.90
21115;DHT22;10715;48.546;9.896;2023-09-19T02:04:10;14.00;99.90
21115;DHT22;10715;48.546;9.896;2023-09-19T02:06:39;13.90;99.90
21115;DHT22;10715;48.546;9.896;2023-09-19T02:09:05;14.00;99.90
21115;DHT22;10715;48.546;9.896;2023-09-19T02:11:31;14.00;99.90
21115;DHT22;10715;48.546;9.896;2023-09-19T02:13:57;14.00;99.90
21115;DHT22;10715;48.546;9.896;2023-09-19T02:16:24;13.90;99.90
21115;DHT22;10715;48.546;9.896;2023-09-19T02:18:50;13.90;99.90
21115;DHT22;10715;48.546;9.896;2023-09-19T02:21:17;13.90;99.90
21115;DHT22;10715;48.546;9.896;2023-09-19T02:23:44;13.90;99.90
21115;DHT22;10715;48.546;9.896;2023-09-19T02:26:10;13.90;99.90
21115;DHT22;10715;48.546;9.896;2023-09-19T02:28:37;13.90;99.90
21115;DHT22;10715;48.546;9.896;2023-09-19T02:31:03;13.90;99.90
21115;DHT22;10715;48.546;9.896;2023-09-19T02:33:31;13.90;99.90
21115;DHT22;10715;48.546;9.896;2023-09-19T02:35:58;14.00;99.90
21115;DHT22;10715;48.546;9.896;2023-09-19T02:38:25;13.90;99.90
21115;DHT22;10715;48.546;9.896;2023-09-19T02:40:52;13.90;99.90
21115;DHT22;10715;48.546;9.896;2023-09-19T02:43:18;13.90;99.90
21115;DHT22;10715;48.546;9.896;2023-09-19T02:45:45;13.90;99.90
21115;DHT22;10715;48.546;9.896;2023-09-19T02:48:20;13.90;99.90
21115;DHT22;10715;48.546;9.896;2023-09-19T02:50:49;13.90;99.90
21115;DHT22;10715;48.546;9.896;2023-09-19T02:53:15;13.90;99.90
21115;DHT22;10715;48.546;9.896;2023-09-19T02:55:41;13.90;99.90
21115;DHT22;10715;48.546;9.896;2023-09-19T02:58:08;13.90;99.90
21115;DHT22;10715;48.546;9.896;2023-09-19T03:00:36;13.90;99.90
21115;DHT22;10715;48.546;9.896;2023-09-19T03:03:02;13.90;99.90
21115;DHT22;10715;48.546;9.896;2023-09-19T03:05:28;13.90;99.90
21115;DHT22;10715;48.546;9.896;2023-09-19T03:07:56;13.90;99.90
21115;DHT22;10715;48.546;9.896;2023-09-19T03:10:22;13.90;99.90
21115;DHT22;10715;48.546;9.896;2023-09-19T03:12:50;13.90;99.90
21115;DHT22;10715;48.546;9.896;2023-09-19T03:15:16;13.90;99.90
21115;DHT22;10715;48.546;9.896;2023-09-19T03:17:44;13.90;99.90
21115;DHT22;10715;48.546;9.896;2023-09-19T03:20:11;13.90;99.90
21115;DHT22;10715;48.546;9.896;2023-09-19T03:22:39;13.90;99.90
21115;DHT22;10715;48.546;9.896;2023-09-19T03:25:06;13.90;99.90
21115;DHT22;10715;48.546;9.896;2023-09-19T03:27:34;13.80;99.90
21115;DHT22;10715;48.546;9.896;2023-09-19T03:30:00;13.80;99.90
21115;DHT22;10715;48.546;9.896;2023-09-19T03:32:26;13.80;99.90
21115;DHT22;10715;48.546;9.896;2023-09-19T03:34:52;13.80;99.90
21115;DHT22;10715;48.546;9.896;2023-09-19T03:37:18;13.70;99.90
21115;DHT22;10715;48.546;9.896;2023-09-19T03:39:44;13.70;99.90
21115;DHT22;10715;48.546;9.896;2023-09-19T03:42:10;13.70;99.90
21115;DHT22;10715;48.546;9.896;2023-09-19T03:44:36;13.70;99.90
21115;DHT22;10715;48.546;9.896;2023-09-19T03:47:01;13.70;99.90
21115;DHT22;10715;48.546;9.896;2023-09-19T03:49:29;13.60;99.90
21115;DHT22;10715;48.546;9.896;2023-09-19T03:51:56;13.60;99.90
21115;DHT22;10715;48.546;9.896;2023-09-19T03:54:21;13.60;99.90
21115;DHT22;10715;48.546;9.896;2023-09-19T03:56:47;13.60;99.90
21115;DHT22;10715;48.546;9.896;2023-09-19T03:59:13;13.50;99.90
21115;DHT22;10715;48.546;9.896;2023-09-19T04:01:39;13.50;99.90
21115;DHT22;10715;48.546;9.896;2023-09-19T04:04:06;13.50;99.90
21115;DHT22;10715;48.546;9.896;2023-09-19T04:06:35;13.50;99.90
21115;DHT22;10715;48.546;9.896;2023-09-19T04:09:04;13.50;99.90
21115;DHT22;10715;48.546;9.896;2023-09-19T04:11:32;13.50;99.90
21115;DHT22;10715;48.546;9.896;2023-09-19T04:13:58;13.50;99.90
21115;DHT22;10715;48.546;9.896;2023-09-19T04:16:24;13.50;99.90
21115;DHT22;10715;48.546;9.896;2023-09-19T04:18:50;13.50;99.90
21115;DHT22;10715;48.546;9.896;2023-09-19T04:21:16;13.50;99.90
21115;DHT22;10715;48.546;9.896;2023-09-19T04:23:42;13.50;99.90
21115;DHT22;10715;48.546;9.896;2023-09-19T04:26:08;13.50;99.90
21115;DHT22;10715;48.546;9.896;2023-09-19T04:28:34;13.50;99.90
21115;DHT22;10715;48.546;9.896;2023-09-19T04:31:01;13.50;99.90
21115;DHT22;10715;48.546;9.896;2023-09-19T04:33:27;13.50;99.90
21115;DHT22;10715;48.546;9.896;2023-09-19T04:35:53;13.50;99.90
21115;DHT22;10715;48.546;9.896;2023-09-19T04:38:19;13.50;99.90
21115;DHT22;10715;48.546;9.896;2023-09-19T04:40:45;13.50;99.90
21115;DHT22;10715;48.546;9.896;2023-09-19T04:43:11;13.50;99.90
21115;DHT22;10715;48.546;9.896;2023-09-19T04:45:39;13.50;99.90
21115;DHT22;10715;48.546;9.896;2023-09-19T04:48:05;13.50;99.90
21115;DHT22;10715;48.546;9.896;2023-09-19T04:50:34;13.50;99.90
21115;DHT22;10715;48.546;9.896;2023-09-19T04:53:00;13.60;99.90
21115;DHT22;10715;48.546;9.896;2023-09-19T04:55:26;13.60;99.90
21115;DHT22;10715;48.546;9.896;2023-09-19T04:57:53;13.60;99.90
21115;DHT22;10715;48.546;9.896;2023-09-19T05:00:22;13.60;99.90
21115;DHT22;10715;48.546;9.896;2023-09-19T05:02:56;13.60;99.90
21115;DHT22;10715;48.546;9.896;2023-09-19T05:05:22;13.60;99.90
21115;DHT22;10715;48.546;9.896;2023-09-19T05:07:51;13.60;99.90
21115;DHT22;10715;48.546;9.896;2023-09-19T05:10:19;13.60;99.90
21115;DHT22;10715;48.546;9.896;2023-09-19T05:12:45;13.60;99.90
21115;DHT22;10715;48.546;9.896;2023-09-19T05:15:14;13.60;99.90
21115;DHT22;10715;48.546;9.896;2023-09-19T05:17:48;13.60;99.90
21115;DHT22;10715;48.546;9.896;2023-09-19T05:20:15;13.60;99.90
21115;DHT22;10715;48.546;9.896;2023-09-19T05:22:42;13.60;99.90
21115;DHT22;10715;48.546;9.896;2023-09-19T05:25:09;13.60;99.90
21115;DHT22;10715;48.546;9.896;2023-09-19T05:27:35;13.60;99.90
21115;DHT22;10715;48.546;9.896;2023-09-19T05:30:01;13.60;99.90
21115;DHT22;10715;48.546;9.896;2023-09-19T05:32:26;13.60;99.90
21115;DHT22;10715;48.546;9.896;2023-09-19T05:34:52;13.60;99.90
21115;DHT22;10715;48.546;9.896;2023-09-19T05:37:19;13.60;99.90
21115;DHT22;10715;48.546;9.896;2023-09-19T05:39:45;13.60;99.90
21115;DHT22;10715;48.546;9.896;2023-09-19T05:42:11;13.60;99.90
21115;DHT22;10715;48.546;9.896;2023-09-19T05:44:36;13.60;99.90
21115;DHT22;10715;48.546;9.896;2023-09-19T05:47:05;13.60;99.90
21115;DHT22;10715;48.546;9.896;2023-09-19T05:49:35;13.60;99.90
21115;DHT22;10715;48.546;9.896;2023-09-19T05:52:05;13.60;99.90
21115;DHT22;10715;48.546;9.896;2023-09-19T05:54:30;13.60;99.90
21115;DHT22;10715;48.546;9.896;2023-09-19T05:56:56;13.60;99.90
21115;DHT22;10715;48.546;9.896;2023-09-19T05:59:23;13.60;99.90
21115;DHT22;10715;48.546;9.896;2023-09-19T06:01:49;13.70;99.90
21115;DHT22;10715;48.546;9.896;2023-09-19T06:04:17;13.70;99.90
21115;DHT22;10715;48.546;9.896;2023-09-19T06:06:44;13.70;99.90
21115;DHT22;10715;48.546;9.896;2023-09-19T06:09:10;13.80;99.90
21115;DHT22;10715;48.546;9.896;2023-09-19T06:11:36;13.80;99.90
21115;DHT22;10715;48.546;9.896;2023-09-19T06:14:03;13.90;99.90
21115;DHT22;10715;48.546;9.896;2023-09-19T06:16:29;13.90;99.90
21115;DHT22;10715;48.546;9.896;2023-09-19T06:18:57;13.90;99.90
21115;DHT22;10715;48.546;9.896;2023-09-19T06:21:26;14.00;99.90
21115;DHT22;10715;48.546;9.896;2023-09-19T06:23:53;14.10;99.90
21115;DHT22;10715;48.546;9.896;2023-09-19T06:26:19;14.10;99.90
21115;DHT22;10715;48.546;9.896;2023-09-19T06:28:44;14.20;99.90
21115;DHT22;10715;48.546;9.896;2023-09-19T06:31:10;14.20;99.90
21115;DHT22;10715;48.546;9.896;2023-09-19T06:33:37;14.30;99.90
21115;DHT22;10715;48.546;9.896;2023-09-19T06:36:05;14.30;99.90
21115;DHT22;10715;48.546;9.896;2023-09-19T06:38:31;14.30;99.90
21115;DHT22;10715;48.546;9.896;2023-09-19T06:40:59;14.40;99.90
21115;DHT22;10715;48.546;9.896;2023-09-19T06:43:26;14.40;99.90
21115;DHT22;10715;48.546;9.896;2023-09-19T06:45:54;14.40;99.90
21115;DHT22;10715;48.546;9.896;2023-09-19T06:48:20;14.40;99.90
21115;DHT22;10715;48.546;9.896;2023-09-19T06:50:46;14.50;99.90
21115;DHT22;10715;48.546;9.896;2023-09-19T06:53:13;14.50;99.90
21115;DHT22;10715;48.546;9.896;2023-09-19T06:55:39;14.50;99.90
21115;DHT22;10715;48.546;9.896;2023-09-19T06:58:05;14.50;99.90
21115;DHT22;10715;48.546;9.896;2023-09-19T07:00:31;14.60;99.90
21115;DHT22;10715;48.546;9.896;2023-09-19T07:03:02;14.60;99.90
21115;DHT22;10715;48.546;9.896;2023-09-19T07:05:35;14.60;99.90
21115;DHT22;10715;48.546;9.896;2023-09-19T07:08:05;14.70;99.90
21115;DHT22;10715;48.546;9.896;2023-09-19T07:10:32;14.70;99.90
21115;DHT22;10715;48.546;9.896;2023-09-19T07:12:59;14.80;99.90
21115;DHT22;10715;48.546;9.896;2023-09-19T07:15:26;14.80;99.90
21115;DHT22;10715;48.546;9.896;2023-09-19T07:17:53;14.90;99.90
21115;DHT22;10715;48.546;9.896;2023-09-19T07:20:20;14.90;99.90
21115;DHT22;10715;48.546;9.896;2023-09-19T07:22:46;15.00;99.90
21115;DHT22;10715;48.546;9.896;2023-09-19T07:25:13;15.00;99.90
21115;DHT22;10715;48.546;9.896;2023-09-19T07:27:41;15.10;99.90
21115;DHT22;10715;48.546;9.896;2023-09-19T07:30:07;15.10;99.90
21115;DHT22;10715;48.546;9.896;2023-09-19T07:32:34;15.10;99.90
21115;DHT22;10715;48.546;9.896;2023-09-19T07:35:02;15.20;99.90
21115;DHT22;10715;48.546;9.896;2023-09-19T07:37:30;15.20;99.90
21115;DHT22;10715;48.546;9.896;2023-09-19T07:40:07;15.20;99.90
21115;DHT22;10715;48.546;9.896;2023-09-19T07:42:37;15.30;99.90
21115;DHT22;10715;48.546;9.896;2023-09-19T07:45:07;15.30;99.90
21115;DHT22;10715;48.546;9.896;2023-09-19T07:47:33;15.40;99.90
21115;DHT22;10715;48.546;9.896;2023-09-19T07:49:59;15.40;99.90
21115;DHT22;10715;48.546;9.896;2023-09-19T07:52:27;15.40;99.90
21115;DHT22;10715;48.546;9.896;2023-09-19T07:54:53;15.40;99.90
21115;DHT22;10715;48.546;9.896;2023-09-19T07:57:19;15.50;99.90
21115;DHT22;10715;48.546;9.896;2023-09-19T07:59:45;15.50;99.90
21115;DHT22;10715;48.546;9.896;2023-09-19T08:02:11;15.50;99.90
21115;DHT22;10715;48.546;9.896;2023-09-19T08:04:44;15.60;99.90
21115;DHT22;10715;48.546;9.896;2023-09-19T08:07:12;15.60;99.90
21115;DHT22;10715;48.546;9.896;2023-09-19T08:09:39;15.70;99.90
21115;DHT22;10715;48.546;9.896;2023-09-19T08:12:06;15.70;99.90
21115;DHT22;10715;48.546;9.896;2023-09-19T08:14:33;15.70;99.90
21115;DHT22;10715;48.546;9.896;2023-09-19T08:17:00;15.70;99.90
21115;DHT22;10715;48.546;9.896;2023-09-19T08:19:26;15.80;99.90
21115;DHT22;10715;48.546;9.896;2023-09-19T08:21:59;15.80;99.90
21115;DHT22;10715;48.546;9.896;2023-09-19T08:24:28;15.80;99.90
21115;DHT22;10715;48.546;9.896;2023-09-19T08:26:55;15.80;99.90
21115;DHT22;10715;48.546;9.896;2023-09-19T08:29:22;15.80;99.90
21115;DHT22;10715;48.546;9.896;2023-09-19T08:31:54;15.80;99.90
21115;DHT22;10715;48.546;9.896;2023-09-19T08:34:19;15.80;99.90
21115;DHT22;10715;48.546;9.896;2023-09-19T08:36:46;15.80;99.90
21115;DHT22;10715;48.546;9.896;2023-09-19T08:39:13;15.80;99.90
21115;DHT22;10715;48.546;9.896;2023-09-19T08:41:39;15.80;99.90
21115;DHT22;10715;48.546;9.896;2023-09-19T08:44:05;15.80;99.90
21115;DHT22;10715;48.546;9.896;2023-09-19T08:46:34;15.90;99.90
21115;DHT22;10715;48.546;9.896;2023-09-19T08:49:04;15.90;99.90
21115;DHT22;10715;48.546;9.896;2023-09-19T08:51:42;15.90;99.90
21115;DHT22;10715;48.546;9.896;2023-09-19T08:54:35;16.00;99.90
21115;DHT22;10715;48.546;9.896;2023-09-19T08:57:06;16.00;99.90
21115;DHT22;10715;48.546;9.896;2023-09-19T08:59:38;16.10;99.90
21115;DHT22;10715;48.546;9.896;2023-09-19T09:02:11;16.10;99.90
21115;DHT22;10715;48.546;9.896;2023-09-19T09:04:42;16.20;99.90
21115;DHT22;10715;48.546;9.896;2023-09-19T09:07:13;16.30;99.90
21115;DHT22;10715;48.546;9.896;2023-09-19T09:09:39;16.30;99.90
21115;DHT22;10715;48.546;9.896;2023-09-19T09:12:13;16.40;99.90
21115;DHT22;10715;48.546;9.896;2023-09-19T09:14:44;16.40;99.90
21115;DHT22;10715;48.546;9.896;2023-09-19T09:17:10;16.50;99.90
21115;DHT22;10715;48.546;9.896;2023-09-19T09:19:36;16.60;99.90
21115;DHT22;10715;48.546;9.896;2023-09-19T09:22:09;16.60;99.90
21115;DHT22;10715;48.546;9.896;2023-09-19T09:24:36;16.70;99.90
21115;DHT22;10715;48.546;9.896;2023-09-19T09:27:05;16.70;99.90
21115;DHT22;10715;48.546;9.896;2023-09-19T09:29:48;16.70;99.90
21115;DHT22;10715;48.546;9.896;2023-09-19T09:34:49;16.80;99.90
21115;DHT22;10715;48.546;9.896;2023-09-19T09:37:16;16.80;99.90
21115;DHT22;10715;48.546;9.896;2023-09-19T09:39:53;16.90;99.90
21115;DHT22;10715;48.546;9.896;2023-09-19T09:42:34;16.90;99.90
21115;DHT22;10715;48.546;9.896;2023-09-19T09:45:20;16.90;99.90
21115;DHT22;10715;48.546;9.896;2023-09-19T09:47:58;16.90;99.90
21115;DHT22;10715;48.546;9.896;2023-09-19T09:50:30;16.90;99.90
21115;DHT22;10715;48.546;9.896;2023-09-19T09:53:25;17.00;99.90
21115;DHT22;10715;48.546;9.896;2023-09-19T09:56:04;17.00;99.90
21115;DHT22;10715;48.546;9.896;2023-09-19T09:58:36;17.00;99.90
21115;DHT22;10715;48.546;9.896;2023-09-19T10:01:04;17.00;99.90
21115;DHT22;10715;48.546;9.896;2023-09-19T10:03:41;17.00;99.90
21115;DHT22;10715;48.546;9.896;2023-09-19T10:06:13;17.00;99.90
21115;DHT22;10715;48.546;9.896;2023-09-19T10:09:07;17.10;99.90
21115;DHT22;10715;48.546;9.896;2023-09-19T10:11:42;17.10;99.90
21115;DHT22;10715;48.546;9.896;2023-09-19T10:14:17;17.20;99.90
21115;DHT22;10715;48.546;9.896;2023-09-19T10:16:49;17.20;99.90
21115;DHT22;10715;48.546;9.896;2023-09-19T10:19:23;17.30;99.90
21115;DHT22;10715;48.546;9.896;2023-09-19T10:21:50;17.40;99.90
21115;DHT22;10715;48.546;9.896;2023-09-19T10:24:19;17.40;99.90
21115;DHT22;10715;48.546;9.896;2023-09-19T10:26:46;17.50;99.90
21115;DHT22;10715;48.546;9.896;2023-09-19T10:29:17;17.50;99.90
21115;DHT22;10715;48.546;9.896;2023-09-19T10:31:44;17.60;99.90
21115;DHT22;10715;48.546;9.896;2023-09-19T10:34:15;17.60;99.90
21115;DHT22;10715;48.546;9.896;2023-09-19T10:36:45;17.60;99.90
21115;DHT22;10715;48.546;9.896;2023-09-19T10:39:14;17.60;99.90
21115;DHT22;10715;48.546;9.896;2023-09-19T10:41:50;17.60;99.90
21115;DHT22;10715;48.546;9.896;2023-09-19T10:44:25;17.60;99.90
21115;DHT22;10715;48.546;9.896;2023-09-19T10:46:52;17.70;99.90
21115;DHT22;10715;48.546;9.896;2023-09-19T10:49:20;17.70;99.90
21115;DHT22;10715;48.546;9.896;2023-09-19T10:51:49;17.70;99.90
21115;DHT22;10715;48.546;9.896;2023-09-19T10:54:22;17.80;99.90
21115;DHT22;10715;48.546;9.896;2023-09-19T10:56:53;17.80;99.90
21115;DHT22;10715;48.546;9.896;2023-09-19T10:59:20;17.90;99.90
21115;DHT22;10715;48.546;9.896;2023-09-19T11:01:50;18.00;99.90
21115;DHT22;10715;48.546;9.896;2023-09-19T11:15:07;18.20;99.90
21115;DHT22;10715;48.546;9.896;2023-09-19T11:17:42;18.30;99.90
21115;DHT22;10715;48.546;9.896;2023-09-19T11:30:32;18.60;99.90
21115;DHT22;10715;48.546;9.896;2023-09-19T11:33:23;18.70;99.90
21115;DHT22;10715;48.546;9.896;2023-09-19T11:36:15;18.70;99.90
21115;DHT22;10715;48.546;9.896;2023-09-19T11:46:27;18.90;99.90
21115;DHT22;10715;48.546;9.896;2023-09-19T11:48:54;18.90;99.90
21115;DHT22;10715;48.546;9.896;2023-09-19T11:51:24;18.90;99.90
21115;DHT22;10715;48.546;9.896;2023-09-19T11:53:54;18.90;99.90
21115;DHT22;10715;48.546;9.896;2023-09-19T11:56:22;18.90;99.90
21115;DHT22;10715;48.546;9.896;2023-09-19T11:58:51;18.90;99.90
21115;DHT22;10715;48.546;9.896;2023-09-19T12:01:33;18.90;99.90
21115;DHT22;10715;48.546;9.896;2023-09-19T12:04:01;18.90;99.90
21115;DHT22;10715;48.546;9.896;2023-09-19T12:06:30;18.90;99.90
21115;DHT22;10715;48.546;9.896;2023-09-19T12:08:58;18.90;99.90
21115;DHT22;10715;48.546;9.896;2023-09-19T12:11:30;18.90;99.90
21115;DHT22;10715;48.546;9.896;2023-09-19T12:13:59;18.90;99.90
21115;DHT22;10715;48.546;9.896;2023-09-19T12:16:26;18.80;99.90
21115;DHT22;10715;48.546;9.896;2023-09-19T12:18:56;18.80;99.90
21115;DHT22;10715;48.546;9.896;2023-09-19T12:26:25;18.90;99.90
21115;DHT22;10715;48.546;9.896;2023-09-19T12:28:52;18.90;99.90
21115;DHT22;10715;48.546;9.896;2023-09-19T12:31:20;18.80;99.90
21115;DHT22;10715;48.546;9.896;2023-09-19T12:33:46;18.80;99.90
21115;DHT22;10715;48.546;9.896;2023-09-19T12:36:24;18.80;99.90
21115;DHT22;10715;48.546;9.896;2023-09-19T12:38:59;18.80;99.90
21115;DHT22;10715;48.546;9.896;2023-09-19T12:41:28;18.80;99.90
21115;DHT22;10715;48.546;9.896;2023-09-19T12:43:54;18.80;99.90
21115;DHT22;10715;48.546;9.896;2023-09-19T12:46:21;18.80;99.90
21115;DHT22;10715;48.546;9.896;2023-09-19T12:51:48;18.80;99.90
21115;DHT22;10715;48.546;9.896;2023-09-19T12:54:15;18.90;99.90
21115;DHT22;10715;48.546;9.896;2023-09-19T12:56:45;18.90;99.90
21115;DHT22;10715;48.546;9.896;2023-09-19T12:59:13;18.90;99.90
21115;DHT22;10715;48.546;9.896;2023-09-19T13:01:42;19.00;99.90
21115;DHT22;10715;48.546;9.896;2023-09-19T13:04:18;19.00;99.90
21115;DHT22;10715;48.546;9.896;2023-09-19T13:06:51;19.00;99.90
21115;DHT22;10715;48.546;9.896;2023-09-19T13:09:19;19.00;99.90
21115;DHT22;10715;48.546;9.896;2023-09-19T13:11:53;19.00;99.90
21115;DHT22;10715;48.546;9.896;2023-09-19T13:14:20;19.00;99.90
21115;DHT22;10715;48.546;9.896;2023-09-19T13:17:04;19.00;99.90
21115;DHT22;10715;48.546;9.896;2023-09-19T13:19:48;19.10;99.90
21115;DHT22;10715;48.546;9.896;2023-09-19T13:25:10;19.10;99.90
21115;DHT22;10715;48.546;9.896;2023-09-19T13:27:45;19.20;99.90
21115;DHT22;10715;48.546;9.896;2023-09-19T13:30:12;19.20;99.90
21115;DHT22;10715;48.546;9.896;2023-09-19T13:32:38;19.20;99.90
21115;DHT22;10715;48.546;9.896;2023-09-19T13:35:06;19.20;99.90
21115;DHT22;10715;48.546;9.896;2023-09-19T13:37:35;19.20;99.90
21115;DHT22;10715;48.546;9.896;2023-09-19T13:40:16;19.20;99.90
21115;DHT22;10715;48.546;9.896;2023-09-19T13:42:42;19.20;99.90
21115;DHT22;10715;48.546;9.896;2023-09-19T13:45:08;19.20;99.90
21115;DHT22;10715;48.546;9.896;2023-09-19T13:47:37;19.20;99.90
21115;DHT22;10715;48.546;9.896;2023-09-19T13:50:04;19.30;99.90
21115;DHT22;10715;48.546;9.896;2023-09-19T13:52:31;19.20;99.90
21115;DHT22;10715;48.546;9.896;2023-09-19T13:54:57;19.30;99.90
21115;DHT22;10715;48.546;9.896;2023-09-19T13:57:24;19.30;99.90
21115;DHT22;10715;48.546;9.896;2023-09-19T13:59:50;19.30;99.90
21115;DHT22;10715;48.546;9.896;2023-09-19T14:02:17;19.30;99.90
21115;DHT22;10715;48.546;9.896;2023-09-19T14:04:44;19.40;99.90
21115;DHT22;10715;48.546;9.896;2023-09-19T14:07:10;19.40;99.90
21115;DHT22;10715;48.546;9.896;2023-09-19T14:09:40;19.40;99.90
21115;DHT22;10715;48.546;9.896;2023-09-19T14:12:06;19.40;99.90
21115;DHT22;10715;48.546;9.896;2023-09-19T14:14:32;19.40;99.90
21115;DHT22;10715;48.546;9.896;2023-09-19T14:16:58;19.40;99.90
21115;DHT22;10715;48.546;9.896;2023-09-19T14:19:26;19.40;99.90
21115;DHT22;10715;48.546;9.896;2023-09-19T14:21:52;19.50;99.90
21115;DHT22;10715;48.546;9.896;2023-09-19T14:24:21;19.50;99.90
21115;DHT22;10715;48.546;9.896;2023-09-19T14:26:47;19.50;99.90
21115;DHT22;10715;48.546;9.896;2023-09-19T14:29:15;19.50;99.90
21115;DHT22;10715;48.546;9.896;2023-09-19T14:31:41;19.50;99.90
21115;DHT22;10715;48.546;9.896;2023-09-19T14:34:07;19.50;99.90
21115;DHT22;10715;48.546;9.896;2023-09-19T14:36:36;19.50;99.90
21115;DHT22;10715;48.546;9.896;2023-09-19T14:39:02;19.50;99.90
21115;DHT22;10715;48.546;9.896;2023-09-19T14:41:28;19.50;99.90
21115;DHT22;10715;48.546;9.896;2023-09-19T14:43:54;19.50;99.90
21115;DHT22;10715;48.546;9.896;2023-09-19T14:46:21;19.50;99.90
21115;DHT22;10715;48.546;9.896;2023-09-19T14:48:46;19.50;99.90
21115;DHT22;10715;48.546;9.896;2023-09-19T14:51:13;19.50;99.90
21115;DHT22;10715;48.546;9.896;2023-09-19T14:53:40;19.50;99.90
21115;DHT22;10715;48.546;9.896;2023-09-19T14:56:08;19.50;99.90
21115;DHT22;10715;48.546;9.896;2023-09-19T14:58:34;19.50;99.90
21115;DHT22;10715;48.546;9.896;2023-09-19T15:01:08;19.50;99.90
21115;DHT22;10715;48.546;9.896;2023-09-19T15:03:35;19.50;99.90
21115;DHT22;10715;48.546;9.896;2023-09-19T15:06:07;19.50;99.90
21115;DHT22;10715;48.546;9.896;2023-09-19T15:08:35;19.50;99.90
21115;DHT22;10715;48.546;9.896;2023-09-19T15:11:01;19.40;99.90
21115;DHT22;10715;48.546;9.896;2023-09-19T15:13:31;19.40;99.90
21115;DHT22;10715;48.546;9.896;2023-09-19T15:18:27;19.40;99.90
21115;DHT22;10715;48.546;9.896;2023-09-19T15:20:52;19.40;99.90
21115;DHT22;10715;48.546;9.896;2023-09-19T15:23:20;19.40;99.90
21115;DHT22;10715;48.546;9.896;2023-09-19T15:25:49;19.40;99.90
21115;DHT22;10715;48.546;9.896;2023-09-19T15:28:15;19.40;99.90
21115;DHT22;10715;48.546;9.896;2023-09-19T15:30:41;19.40;99.90
21115;DHT22;10715;48.546;9.896;2023-09-19T15:33:06;19.40;99.90
21115;DHT22;10715;48.546;9.896;2023-09-19T15:35:33;19.50;99.90
21115;DHT22;10715;48.546;9.896;2023-09-19T15:37:58;19.40;99.90
21115;DHT22;10715;48.546;9.896;2023-09-19T15:40:26;19.40;99.90
21115;DHT22;10715;48.546;9.896;2023-09-19T15:42:54;19.40;99.90
21115;DHT22;10715;48.546;9.896;2023-09-19T15:45:20;19.40;99.90
21115;DHT22;10715;48.546;9.896;2023-09-19T15:47:45;19.40;99.90
21115;DHT22;10715;48.546;9.896;2023-09-19T15:50:11;19.40;99.90
21115;DHT22;10715;48.546;9.896;2023-09-19T15:52:41;19.40;99.90
21115;DHT22;10715;48.546;9.896;2023-09-19T15:55:08;19.40;99.90
21115;DHT22;10715;48.546;9.896;2023-09-19T15:57:37;19.30;99.90
21115;DHT22;10715;48.546;9.896;2023-09-19T16:00:04;19.30;99.90
21115;DHT22;10715;48.546;9.896;2023-09-19T16:02:36;19.30;99.90
21115;DHT22;10715;48.546;9.896;2023-09-19T16:05:02;19.30;99.90
21115;DHT22;10715;48.546;9.896;2023-09-19T16:07:31;19.30;99.90
21115;DHT22;10715;48.546;9.896;2023-09-19T16:09:57;19.30;99.90
21115;DHT22;10715;48.546;9.896;2023-09-19T16:12:25;19.20;99.90
21115;DHT22;10715;48.546;9.896;2023-09-19T16:14:51;19.20;99.90
21115;DHT22;10715;48.546;9.896;2023-09-19T16:17:17;19.10;99.90
21115;DHT22;10715;48.546;9.896;2023-09-19T16:19:43;19.10;99.90
21115;DHT22;10715;48.546;9.896;2023-09-19T16:22:09;19.10;99.90
21115;DHT22;10715;48.546;9.896;2023-09-19T16:24:35;19.00;99.90
21115;DHT22;10715;48.546;9.896;2023-09-19T16:27:01;19.00;99.90
21115;DHT22;10715;48.546;9.896;2023-09-19T16:29:27;19.00;99.90
21115;DHT22;10715;48.546;9.896;2023-09-19T16:31:53;18.90;99.90
21115;DHT22;10715;48.546;9.896;2023-09-19T16:34:18;18.90;99.90
21115;DHT22;10715;48.546;9.896;2023-09-19T16:36:44;18.80;99.90
21115;DHT22;10715;48.546;9.896;2023-09-19T16:39:10;18.80;99.90
21115;DHT22;10715;48.546;9.896;2023-09-19T16:41:36;18.80;99.90
21115;DHT22;10715;48.546;9.896;2023-09-19T16:44:02;18.70;99.90
21115;DHT22;10715;48.546;9.896;2023-09-19T16:46:29;18.70;99.90
21115;DHT22;10715;48.546;9.896;2023-09-19T16:48:55;18.60;99.90